LHW weather

Lanzhou Zhongchuan Airport
Lanzhou, Gansu Province, China

Public forecast

Using degrees Celsius for public forecast. Weather courtesy of forecast.io.

METAR (pilot weather report)

Retrieved 2019/04/23 21:00 UTC (31 minutes ago):

ZLLL 232100Z 03002MPS CAVOK 13/M01 Q1015 NOSIG

TAF (pilot weather forecast)

Retrieved 2019/04/23 18:03 UTC (3 hours ago):

TAF ZLLL 231507Z 2318/2418 33003MPS 6000 NSC TX23/2408Z TN06/2323Z TEMPO 2406/2412 SCT023 FEW033CB